Time;durP1;ratioP1;P1;durP2;ratioP2;P2;SDS_P1;SDS_P2;PMS_P1;PMS_P2;Temp;Humidity;BMP_temperature;BMP_pressure;BME280_temperature;BME280_humidity;BME280_pressure;Samples;Min_cycle;Max_cycle;Signal;HPM_P1;HPM_P2
2022/08/01 00:02:13;;;;;;;5.45;3.25;;;;;;;;;;5028895;28;20088;-78
2022/08/01 00:04:39;;;;;;;9.32;3.30;;;;;;;;;;5026178;28;20050;-80
2022/08/01 00:07:06;;;;;;;5.35;3.53;;;;;;;;;;5024595;28;20050;-80
2022/08/01 00:09:32;;;;;;;8.43;3.53;;;;;;;;;;5033078;28;20050;-80
2022/08/01 00:11:59;;;;;;;9.10;3.78;;;;;;;;;;5032891;28;20077;-79
2022/08/01 00:14:26;;;;;;;6.22;3.72;;;;;;;;;;5028949;28;20080;-80
2022/08/01 00:16:58;;;;;;;6.50;3.65;;;;;;;;;;5027417;28;20042;-80
2022/08/01 00:19:32;;;;;;;4.55;3.63;;;;;;;;;;5016784;28;20136;-79
2022/08/01 00:21:58;;;;;;;4.20;3.60;;;;;;;;;;5017833;28;20088;-79
2022/08/01 00:24:25;;;;;;;4.30;3.50;;;;;;;;;;5019024;28;20046;-77
2022/08/01 00:26:51;;;;;;;4.18;3.00;;;;;;;;;;5019147;28;20100;-79
2022/08/01 00:29:17;;;;;;;5.38;3.70;;;;;;;;;;5019179;28;20081;-78
2022/08/01 00:32:04;;;;;;;5.07;3.60;;;;;;;;;;5019905;28;20144;-78
2022/08/01 00:34:31;;;;;;;5.47;3.53;;;;;;;;;;5019720;28;20069;-78
2022/08/01 00:36:57;;;;;;;7.35;4.13;;;;;;;;;;5025202;28;20046;-78
2022/08/01 00:39:24;;;;;;;5.25;3.90;;;;;;;;;;5020566;28;20073;-78
2022/08/01 00:41:50;;;;;;;6.68;4.32;;;;;;;;;;5018201;28;20073;-80
2022/08/01 00:44:33;;;;;;;6.50;3.60;;;;;;;;;;5023314;28;20046;-80
2022/08/01 00:46:59;;;;;;;6.75;3.90;;;;;;;;;;5022048;28;20058;-78
2022/08/01 00:49:26;;;;;;;8.93;4.22;;;;;;;;;;5013257;28;20069;-78
2022/08/01 00:51:53;;;;;;;4.85;4.20;;;;;;;;;;5012708;28;20454;-79
2022/08/01 00:54:19;;;;;;;5.88;3.80;;;;;;;;;;5019319;28;20112;-78
2022/08/01 00:56:46;;;;;;;6.28;3.97;;;;;;;;;;5017660;28;20498;-79
2022/08/01 00:59:13;;;;;;;6.72;4.10;;;;;;;;;;5029617;28;20189;-80
2022/08/01 01:01:40;;;;;;;5.45;3.88;;;;;;;;;;5029555;28;20049;-80
2022/08/01 01:04:12;;;;;;;8.80;4.32;;;;;;;;;;5026850;28;20057;-80
2022/08/01 01:06:48;;;;;;;7.53;4.40;;;;;;;;;;5028485;28;20469;-80
2022/08/01 01:09:27;;;;;;;6.10;4.10;;;;;;;;;;5028176;28;20046;-80
2022/08/01 01:12:12;;;;;;;5.10;3.90;;;;;;;;;;5026559;28;20057;-80
2022/08/01 01:14:44;;;;;;;6.15;4.00;;;;;;;;;;5028980;28;20068;-80
2022/08/01 01:17:13;;;;;;;5.40;3.83;;;;;;;;;;5029269;28;20078;-79
2022/08/01 01:19:45;;;;;;;5.30;3.45;;;;;;;;;;5026642;28;20058;-80
2022/08/01 01:22:26;;;;;;;8.38;4.07;;;;;;;;;;5021825;28;20049;-80
2022/08/01 01:25:07;;;;;;;5.43;4.10;;;;;;;;;;5023126;28;20057;-79
2022/08/01 01:27:52;;;;;;;5.38;3.63;;;;;;;;;;5025772;28;20113;-79
2022/08/01 01:30:19;;;;;;;5.70;3.47;;;;;;;;;;5024074;28;20050;-79
2022/08/01 01:32:48;;;;;;;5.68;3.67;;;;;;;;;;5023203;28;20053;-80
2022/08/01 01:35:17;;;;;;;6.18;3.88;;;;;;;;;;5023886;28;20080;-80
2022/08/01 01:37:45;;;;;;;4.25;3.83;;;;;;;;;;5025912;28;20279;-80
2022/08/01 01:40:12;;;;;;;6.53;4.40;;;;;;;;;;5021837;28;20066;-78
2022/08/01 01:42:39;;;;;;;6.53;3.83;;;;;;;;;;5014653;28;20073;-78
2022/08/01 01:45:06;;;;;;;6.38;3.60;;;;;;;;;;5016377;28;20046;-78
2022/08/01 01:47:34;;;;;;;8.30;4.45;;;;;;;;;;5015470;28;20050;-78
2022/08/01 01:50:02;;;;;;;5.00;3.72;;;;;;;;;;5017036;28;20137;-77
2022/08/01 01:52:29;;;;;;;4.00;3.33;;;;;;;;;;5021272;28;20053;-79
2022/08/01 01:54:56;;;;;;;4.68;3.70;;;;;;;;;;5023538;28;20045;-79
2022/08/01 01:57:23;;;;;;;4.80;3.50;;;;;;;;;;5022653;28;20115;-80
2022/08/01 01:59:50;;;;;;;6.15;3.55;;;;;;;;;;5003110;28;20161;-78
2022/08/01 02:02:17;;;;;;;5.93;4.00;;;;;;;;;;5014920;28;20096;-78
2022/08/01 02:04:44;;;;;;;14.88;4.13;;;;;;;;;;5008293;28;20050;-80
2022/08/01 02:07:12;;;;;;;6.40;3.25;;;;;;;;;;5023057;28;20050;-80
2022/08/01 02:09:41;;;;;;;5.95;3.50;;;;;;;;;;5019614;28;20061;-78
2022/08/01 02:12:10;;;;;;;8.02;3.80;;;;;;;;;;5014507;28;20073;-79
2022/08/01 02:14:39;;;;;;;6.78;4.00;;;;;;;;;;5013072;28;20066;-78
2022/08/01 02:17:09;;;;;;;8.20;4.00;;;;;;;;;;5017466;28;20050;-79
2022/08/01 02:19:35;;;;;;;5.93;3.90;;;;;;;;;;5034044;28;20080;-80
2022/08/01 02:22:07;;;;;;;5.63;3.80;;;;;;;;;;5034282;28;20037;-80
2022/08/01 02:24:37;;;;;;;6.30;3.95;;;;;;;;;;5025537;28;20118;-79
2022/08/01 02:27:08;;;;;;;7.53;3.75;;;;;;;;;;5026109;28;20525;-80
2022/08/01 02:29:55;;;;;;;7.35;4.10;;;;;;;;;;5025613;28;20108;-79
2022/08/01 02:32:41;;;;;;;6.65;3.88;;;;;;;;;;5009367;28;20073;-79
2022/08/01 02:35:09;;;;;;;8.40;3.87;;;;;;;;;;5023291;28;20052;-80
2022/08/01 02:37:37;;;;;;;7.72;3.90;;;;;;;;;;5023239;28;20297;-80
2022/08/01 02:40:10;;;;;;;9.60;4.57;;;;;;;;;;5024279;28;20046;-80
2022/08/01 02:42:42;;;;;;;9.45;4.57;;;;;;;;;;5007947;28;20070;-80
2022/08/01 02:45:10;;;;;;;5.50;4.18;;;;;;;;;;5024672;28;20093;-80
2022/08/01 02:47:38;;;;;;;7.70;4.50;;;;;;;;;;5025054;28;20073;-80
2022/08/01 02:50:04;;;;;;;6.78;4.25;;;;;;;;;;5022900;28;20045;-80
2022/08/01 02:52:31;;;;;;;9.25;4.13;;;;;;;;;;5024129;28;20108;-80
2022/08/01 02:54:58;;;;;;;7.95;4.18;;;;;;;;;;5023042;28;20053;-79
2022/08/01 02:57:26;;;;;;;6.90;4.07;;;;;;;;;;5021864;28;20077;-80
2022/08/01 03:00:13;;;;;;;8.13;4.30;;;;;;;;;;5020959;28;20121;-80
2022/08/01 03:02:42;;;;;;;6.68;4.47;;;;;;;;;;5019506;28;20042;-80
2022/08/01 03:05:10;;;;;;;6.72;4.68;;;;;;;;;;5016653;28;20073;-79
2022/08/01 03:07:36;;;;;;;6.43;4.82;;;;;;;;;;5016011;28;20145;-79
2022/08/01 03:10:06;;;;;;;7.82;4.63;;;;;;;;;;5014025;28;20092;-79
2022/08/01 03:12:36;;;;;;;6.72;4.60;;;;;;;;;;5014553;28;20056;-79
2022/08/01 03:15:04;;;;;;;6.82;4.57;;;;;;;;;;5014695;28;20046;-79
2022/08/01 03:17:31;;;;;;;7.00;4.50;;;;;;;;;;5015834;28;20100;-78
2022/08/01 03:19:58;;;;;;;7.00;4.68;;;;;;;;;;5021277;28;20042;-78
2022/08/01 03:22:25;;;;;;;8.18;5.13;;;;;;;;;;5011778;28;20313;-78
2022/08/01 03:24:53;;;;;;;8.60;4.50;;;;;;;;;;5011960;28;20046;-79
2022/08/01 03:27:20;;;;;;;9.43;4.30;;;;;;;;;;5013480;28;20072;-78
2022/08/01 03:29:49;;;;;;;8.82;4.20;;;;;;;;;;5012335;28;20491;-78
2022/08/01 03:32:16;;;;;;;9.02;4.00;;;;;;;;;;5012383;28;20141;-78
2022/08/01 03:34:42;;;;;;;12.77;4.30;;;;;;;;;;5012454;28;20050;-79
2022/08/01 03:37:29;;;;;;;6.25;4.05;;;;;;;;;;5012474;28;20442;-77
2022/08/01 03:40:05;;;;;;;7.25;3.55;;;;;;;;;;5013923;28;20100;-80
2022/08/01 03:42:33;;;;;;;5.03;3.72;;;;;;;;;;5013048;28;20057;-79
2022/08/01 03:45:05;;;;;;;7.13;3.60;;;;;;;;;;5011928;28;20085;-78
2022/08/01 03:47:33;;;;;;;5.60;3.30;;;;;;;;;;5012599;28;20050;-78
2022/08/01 03:50:09;;;;;;;4.55;3.28;;;;;;;;;;5013610;28;20324;-78
2022/08/01 03:52:39;;;;;;;5.70;3.30;;;;;;;;;;5012829;28;20066;-78
2022/08/01 03:55:09;;;;;;;4.70;3.10;;;;;;;;;;5013430;28;20081;-79
2022/08/01 03:57:36;;;;;;;5.28;3.03;;;;;;;;;;5015276;28;20046;-79
2022/08/01 04:00:06;;;;;;;5.10;2.92;;;;;;;;;;5012638;28;20050;-78
2022/08/01 04:02:32;;;;;;;6.90;2.88;;;;;;;;;;5010769;28;20054;-78
2022/08/01 04:04:59;;;;;;;4.50;3.17;;;;;;;;;;5010733;28;20080;-79
2022/08/01 04:07:26;;;;;;;4.43;2.75;;;;;;;;;;5011245;28;20073;-79
2022/08/01 04:09:53;;;;;;;5.80;2.92;;;;;;;;;;5014293;28;20077;-78
2022/08/01 04:12:20;;;;;;;4.93;2.88;;;;;;;;;;5019008;28;20046;-78
2022/08/01 04:14:47;;;;;;;5.68;2.95;;;;;;;;;;5018585;28;20080;-79
2022/08/01 04:17:13;;;;;;;5.18;3.20;;;;;;;;;;5026343;28;20046;-81
2022/08/01 04:19:40;;;;;;;4.38;3.08;;;;;;;;;;5018742;28;20071;-81
2022/08/01 04:22:07;;;;;;;9.18;3.40;;;;;;;;;;5015395;28;20058;-78
2022/08/01 04:24:35;;;;;;;6.65;3.38;;;;;;;;;;5016164;28;20050;-78
2022/08/01 04:27:04;;;;;;;9.18;3.22;;;;;;;;;;5022290;28;20077;-80
2022/08/01 04:29:32;;;;;;;5.40;3.45;;;;;;;;;;5029996;28;20041;-79
2022/08/01 04:32:00;;;;;;;5.35;3.15;;;;;;;;;;5026015;28;20049;-79
2022/08/01 04:34:28;;;;;;;5.50;3.40;;;;;;;;;;5024963;28;20111;-80
2022/08/01 04:36:55;;;;;;;3.42;3.13;;;;;;;;;;5029171;28;20049;-79
2022/08/01 04:39:23;;;;;;;5.22;3.72;;;;;;;;;;5022564;28;20140;-79
2022/08/01 04:41:50;;;;;;;5.65;3.40;;;;;;;;;;5014445;28;20141;-79
2022/08/01 04:44:17;;;;;;;5.78;3.88;;;;;;;;;;5016144;28;20458;-79
2022/08/01 04:46:43;;;;;;;4.75;4.25;;;;;;;;;;5017418;28;20084;-80
2022/08/01 04:49:11;;;;;;;7.43;4.72;;;;;;;;;;5017584;28;20073;-79
2022/08/01 04:51:49;;;;;;;6.95;4.22;;;;;;;;;;5016870;28;20050;-79
2022/08/01 04:54:15;;;;;;;7.72;5.50;;;;;;;;;;5020460;28;20092;-79
2022/08/01 04:56:41;;;;;;;9.57;5.75;;;;;;;;;;5021555;28;20056;-80
2022/08/01 05:01:53;;;;;;;11.00;6.07;;;;;;;;;;5020353;28;20097;-79
2022/08/01 05:04:19;;;;;;;11.63;6.25;;;;;;;;;;5019341;28;20046;-79
2022/08/01 05:06:45;;;;;;;11.85;5.75;;;;;;;;;;5020319;28;20085;-79
2022/08/01 05:09:12;;;;;;;9.05;5.90;;;;;;;;;;5023261;28;20050;-79
2022/08/01 05:11:38;;;;;;;9.40;6.15;;;;;;;;;;5022876;28;20499;-79
2022/08/01 05:14:06;;;;;;;11.40;5.82;;;;;;;;;;5022337;28;20096;-78
2022/08/01 05:16:32;;;;;;;9.23;5.80;;;;;;;;;;5025364;28;20189;-79
2022/08/01 05:18:59;;;;;;;7.82;5.25;;;;;;;;;;5023242;28;20073;-79
2022/08/01 05:21:25;;;;;;;11.65;5.32;;;;;;;;;;5025205;28;20060;-79
2022/08/01 05:23:52;;;;;;;7.30;5.03;;;;;;;;;;5023427;28;20446;-80
2022/08/01 05:26:19;;;;;;;6.03;4.40;;;;;;;;;;5024489;28;20050;-79
2022/08/01 05:28:46;;;;;;;12.20;4.78;;;;;;;;;;5019692;28;20046;-79
2022/08/01 05:31:12;;;;;;;6.32;5.43;;;;;;;;;;5016112;28;20133;-79
2022/08/01 05:33:39;;;;;;;6.03;4.65;;;;;;;;;;5025439;28;20545;-79
2022/08/01 05:36:05;;;;;;;7.35;4.70;;;;;;;;;;5030339;28;20041;-80
2022/08/01 05:38:31;;;;;;;5.25;4.70;;;;;;;;;;5033380;28;20045;-80
2022/08/01 05:40:58;;;;;;;5.90;4.45;;;;;;;;;;5028397;28;20050;-80
2022/08/01 05:43:24;;;;;;;5.72;4.20;;;;;;;;;;5027433;28;20074;-80
2022/08/01 05:45:54;;;;;;;8.55;4.25;;;;;;;;;;5025966;28;20046;-80
2022/08/01 05:48:20;;;;;;;6.03;4.25;;;;;;;;;;5024211;28;20104;-80
2022/08/01 05:50:47;;;;;;;8.00;4.10;;;;;;;;;;5022119;28;20073;-79
2022/08/01 05:53:14;;;;;;;6.20;4.80;;;;;;;;;;5027397;28;20478;-79
2022/08/01 05:55:40;;;;;;;5.35;4.40;;;;;;;;;;5027903;28;20034;-79
2022/08/01 05:58:06;;;;;;;5.88;4.05;;;;;;;;;;5024473;28;20077;-78
2022/08/01 06:00:37;;;;;;;8.05;4.53;;;;;;;;;;5022119;28;20315;-79
2022/08/01 06:03:04;;;;;;;6.55;4.15;;;;;;;;;;5019191;28;20154;-79
2022/08/01 06:05:30;;;;;;;5.72;4.47;;;;;;;;;;5018627;28;20054;-79
2022/08/01 06:07:57;;;;;;;5.82;4.32;;;;;;;;;;5021733;28;20081;-79
2022/08/01 06:10:24;;;;;;;5.53;4.13;;;;;;;;;;5020237;28;20082;-77
2022/08/01 06:12:50;;;;;;;5.45;3.60;;;;;;;;;;5037152;28;20069;-79
2022/08/01 06:15:16;;;;;;;5.43;3.90;;;;;;;;;;5019539;28;20057;-79
2022/08/01 06:17:43;;;;;;;7.10;4.43;;;;;;;;;;5018767;28;20113;-78
2022/08/01 06:20:10;;;;;;;7.38;3.80;;;;;;;;;;5016418;28;20613;-79
2022/08/01 06:22:36;;;;;;;6.30;3.70;;;;;;;;;;5014715;28;20073;-79
2022/08/01 06:25:03;;;;;;;5.05;3.28;;;;;;;;;;5015179;28;20052;-79
2022/08/01 06:27:30;;;;;;;5.97;3.85;;;;;;;;;;5017181;28;20081;-78
2022/08/01 06:29:56;;;;;;;4.57;3.75;;;;;;;;;;5016166;28;20046;-79
2022/08/01 06:32:24;;;;;;;4.55;3.50;;;;;;;;;;5014803;28;20057;-79
2022/08/01 06:34:52;;;;;;;5.32;3.80;;;;;;;;;;5013572;28;20053;-79
2022/08/01 06:37:18;;;;;;;6.85;3.72;;;;;;;;;;5016072;28;20557;-79
2022/08/01 06:39:45;;;;;;;8.88;3.53;;;;;;;;;;5016483;28;20057;-79
2022/08/01 06:42:11;;;;;;;7.55;3.55;;;;;;;;;;5011545;28;20049;-77
2022/08/01 06:44:38;;;;;;;9.00;3.53;;;;;;;;;;5012784;28;20128;-79
2022/08/01 06:47:04;;;;;;;5.50;3.28;;;;;;;;;;5018104;28;20046;-78
2022/08/01 06:49:31;;;;;;;4.15;3.13;;;;;;;;;;5015481;28;20054;-80
2022/08/01 06:51:57;;;;;;;5.90;3.13;;;;;;;;;;5013113;28;20061;-78
2022/08/01 06:54:24;;;;;;;3.97;2.45;;;;;;;;;;5012006;28;20088;-78
2022/08/01 06:56:50;;;;;;;4.72;2.53;;;;;;;;;;5012722;28;20073;-79
2022/08/01 06:59:16;;;;;;;5.65;2.67;;;;;;;;;;5013488;28;20169;-78
2022/08/01 07:01:43;;;;;;;9.77;2.85;;;;;;;;;;5013199;28;20086;-78
2022/08/01 07:04:09;;;;;;;4.25;2.13;;;;;;;;;;5015984;28;20648;-78
2022/08/01 07:06:36;;;;;;;6.57;2.30;;;;;;;;;;5012422;28;20557;-78
2022/08/01 07:09:03;;;;;;;4.50;2.30;;;;;;;;;;5012896;28;20056;-78
2022/08/01 07:11:38;;;;;;;4.07;2.20;;;;;;;;;;5010240;28;20455;-78
2022/08/01 07:14:05;;;;;;;3.40;2.00;;;;;;;;;;5011221;28;20128;-77
2022/08/01 07:16:31;;;;;;;4.45;2.00;;;;;;;;;;5013349;28;20062;-80
2022/08/01 07:18:58;;;;;;;2.88;1.98;;;;;;;;;;5009985;28;20111;-79
2022/08/01 07:21:24;;;;;;;5.85;2.10;;;;;;;;;;5011867;28;20141;-79
2022/08/01 07:24:07;;;;;;;2.50;1.88;;;;;;;;;;5024159;28;20050;-80
2022/08/01 07:26:44;;;;;;;4.90;2.40;;;;;;;;;;5021542;28;20395;-78
2022/08/01 07:29:19;;;;;;;8.18;2.33;;;;;;;;;;5011344;28;20502;-78
2022/08/01 07:31:45;;;;;;;6.80;2.47;;;;;;;;;;5009713;28;20100;-78
2022/08/01 07:34:12;;;;;;;6.97;3.15;;;;;;;;;;5007872;28;20144;-78
2022/08/01 07:36:38;;;;;;;11.68;2.47;;;;;;;;;;5008222;28;20482;-78
2022/08/01 07:39:05;;;;;;;4.28;3.10;;;;;;;;;;5010461;28;20078;-78
2022/08/01 07:41:31;;;;;;;6.13;4.13;;;;;;;;;;5013731;28;20133;-79
2022/08/01 07:44:17;;;;;;;7.15;4.00;;;;;;;;;;5014637;28;20050;-79
2022/08/01 07:46:44;;;;;;;7.70;5.00;;;;;;;;;;5013925;28;20499;-78
2022/08/01 07:49:10;;;;;;;9.65;5.22;;;;;;;;;;5007886;28;20101;-78
2022/08/01 07:51:37;;;;;;;11.95;6.32;;;;;;;;;;5011818;28;20482;-79
2022/08/01 07:54:04;;;;;;;6.65;4.78;;;;;;;;;;5017766;28;20581;-79
2022/08/01 07:56:31;;;;;;;5.97;5.03;;;;;;;;;;5026250;28;20104;-79
2022/08/01 07:58:57;;;;;;;7.40;4.88;;;;;;;;;;5023723;28;20057;-80
2022/08/01 08:01:24;;;;;;;6.70;4.72;;;;;;;;;;5023997;28;20069;-79
2022/08/01 08:03:50;;;;;;;5.47;4.53;;;;;;;;;;5023097;28;20049;-79
2022/08/01 08:06:16;;;;;;;4.88;3.75;;;;;;;;;;5026409;28;20041;-80
2022/08/01 08:08:43;;;;;;;5.35;4.03;;;;;;;;;;5025268;28;20046;-79
2022/08/01 08:11:09;;;;;;;8.30;4.20;;;;;;;;;;5021948;28;20073;-80
2022/08/01 08:13:36;;;;;;;5.55;4.10;;;;;;;;;;5021513;28;20050;-79
2022/08/01 08:16:02;;;;;;;7.05;4.35;;;;;;;;;;5017777;28;20088;-79
2022/08/01 08:18:29;;;;;;;4.70;3.78;;;;;;;;;;5017144;28;20518;-78
2022/08/01 08:20:56;;;;;;;4.95;3.75;;;;;;;;;;5015222;28;20057;-79
2022/08/01 08:26:12;;;;;;;5.82;3.10;;;;;;;;;;5022330;28;20053;-79
2022/08/01 08:28:38;;;;;;;4.05;3.20;;;;;;;;;;5016216;28;20283;-78
2022/08/01 08:31:06;;;;;;;4.82;3.20;;;;;;;;;;5017621;28;20046;-79
2022/08/01 08:33:32;;;;;;;5.13;3.53;;;;;;;;;;5022708;28;20132;-79
2022/08/01 08:35:58;;;;;;;6.85;3.90;;;;;;;;;;5020466;28;20061;-80
2022/08/01 08:38:27;;;;;;;9.20;3.20;;;;;;;;;;5023969;28;20056;-80
2022/08/01 08:40:55;;;;;;;4.97;2.95;;;;;;;;;;5023365;28;20046;-79
2022/08/01 08:43:24;;;;;;;7.80;2.50;;;;;;;;;;5019396;28;20129;-79
2022/08/01 08:45:50;;;;;;;2.28;2.08;;;;;;;;;;5021781;28;20118;-80
2022/08/01 08:48:25;;;;;;;2.17;1.60;;;;;;;;;;5018399;28;20483;-78
2022/08/01 08:50:53;;;;;;;4.43;1.60;;;;;;;;;;5017374;28;20793;-79
2022/08/01 08:53:19;;;;;;;2.53;1.50;;;;;;;;;;5012016;28;20089;-79
2022/08/01 08:55:46;;;;;;;2.17;1.40;;;;;;;;;;5036057;28;20038;-80
2022/08/01 08:58:22;;;;;;;2.58;1.40;;;;;;;;;;5037783;28;20061;-79
2022/08/01 09:00:57;;;;;;;1.33;1.23;;;;;;;;;;5021764;28;20052;-79
2022/08/01 09:03:23;;;;;;;4.60;1.10;;;;;;;;;;5016527;28;20042;-78
2022/08/01 09:05:50;;;;;;;1.10;1.00;;;;;;;;;;5016735;28;20120;-78
2022/08/01 09:08:16;;;;;;;0.95;0.93;;;;;;;;;;5017582;28;20061;-79
2022/08/01 09:10:43;;;;;;;1.20;0.85;;;;;;;;;;5015576;28;20049;-79
2022/08/01 09:13:13;;;;;;;3.28;1.00;;;;;;;;;;5016235;28;20084;-79
2022/08/01 09:15:43;;;;;;;1.50;1.00;;;;;;;;;;5016410;28;20530;-78
2022/08/01 09:18:31;;;;;;;1.15;1.00;;;;;;;;;;5015231;28;20050;-78
2022/08/01 09:21:07;;;;;;;1.85;1.00;;;;;;;;;;5007386;28;20092;-79
2022/08/01 09:23:34;;;;;;;1.88;1.20;;;;;;;;;;5018449;28;20475;-79
2022/08/01 09:26:01;;;;;;;3.08;1.15;;;;;;;;;;5016833;28;20084;-79
2022/08/01 09:28:28;;;;;;;1.52;1.23;;;;;;;;;;5016504;28;20053;-79
2022/08/01 09:30:58;;;;;;;1.98;1.30;;;;;;;;;;5016638;28;20115;-79
2022/08/01 09:33:24;;;;;;;3.25;1.50;;;;;;;;;;5016178;28;20133;-80
2022/08/01 09:35:54;;;;;;;2.33;1.30;;;;;;;;;;5016317;28;20064;-79
2022/08/01 09:38:22;;;;;;;1.77;1.00;;;;;;;;;;5017557;28;20152;-79
2022/08/01 09:40:50;;;;;;;2.17;1.55;;;;;;;;;;5019174;28;20119;-79
2022/08/01 09:43:17;;;;;;;2.17;1.60;;;;;;;;;;5017953;28;20050;-79
2022/08/01 09:45:44;;;;;;;3.40;1.85;;;;;;;;;;5016531;28;20046;-79
2022/08/01 09:48:16;;;;;;;3.50;1.90;;;;;;;;;;5016348;28;20046;-79
2022/08/01 09:50:43;;;;;;;8.38;1.70;;;;;;;;;;5011940;28;20283;-79
2022/08/01 09:53:10;;;;;;;7.18;1.30;;;;;;;;;;5017823;28;20045;-80
2022/08/01 09:56:07;;;;;;;4.15;1.20;;;;;;;;;;5017181;28;20092;-79
2022/08/01 09:58:48;;;;;;;1.55;0.77;;;;;;;;;;5016201;28;20053;-79
2022/08/01 10:01:14;;;;;;;2.05;0.80;;;;;;;;;;5009807;28;20077;-79
2022/08/01 10:03:40;;;;;;;2.25;0.98;;;;;;;;;;5013294;28;20081;-78
2022/08/01 10:06:20;;;;;;;1.75;1.00;;;;;;;;;;5019286;28;20046;-79
2022/08/01 10:08:50;;;;;;;1.48;0.70;;;;;;;;;;5019145;28;20092;-79
2022/08/01 10:11:17;;;;;;;3.80;0.90;;;;;;;;;;5020056;28;20046;-79
2022/08/01 10:13:43;;;;;;;2.78;0.80;;;;;;;;;;5019955;28;20422;-79
2022/08/01 10:16:12;;;;;;;4.60;0.75;;;;;;;;;;5017003;28;20490;-77
2022/08/01 10:18:41;;;;;;;1.23;0.70;;;;;;;;;;5014756;28;20061;-78
2022/08/01 10:21:10;;;;;;;2.00;0.70;;;;;;;;;;5013787;28;20153;-78
2022/08/01 10:23:37;;;;;;;1.77;0.60;;;;;;;;;;5016150;28;20482;-78
2022/08/01 10:26:07;;;;;;;2.53;0.80;;;;;;;;;;5021848;28;20046;-79
2022/08/01 10:28:35;;;;;;;2.60;0.60;;;;;;;;;;5021879;28;20049;-79
2022/08/01 10:31:03;;;;;;;1.77;0.68;;;;;;;;;;5020248;28;20049;-79
2022/08/01 10:33:39;;;;;;;1.15;0.70;;;;;;;;;;5020266;28;20064;-79
2022/08/01 10:36:21;;;;;;;1.35;0.82;;;;;;;;;;5016953;28;20060;-79
2022/08/01 10:38:48;;;;;;;1.63;0.50;;;;;;;;;;5016174;28;20084;-79
2022/08/01 10:41:15;;;;;;;1.35;0.60;;;;;;;;;;5016644;28;20470;-78
2022/08/01 10:43:42;;;;;;;2.83;0.55;;;;;;;;;;5012156;28;20045;-78
2022/08/01 10:46:12;;;;;;;3.05;0.77;;;;;;;;;;5010794;28;20053;-79
2022/08/01 10:48:38;;;;;;;1.38;0.60;;;;;;;;;;5009844;28;20395;-79
2022/08/01 10:51:05;;;;;;;3.33;0.60;;;;;;;;;;5013728;28;20077;-79
2022/08/01 10:53:48;;;;;;;4.20;0.80;;;;;;;;;;5018243;28;20045;-79
2022/08/01 10:56:16;;;;;;;1.95;0.75;;;;;;;;;;5009068;28;20073;-79
2022/08/01 10:58:44;;;;;;;1.60;0.63;;;;;;;;;;5035446;28;20049;-79
2022/08/01 11:01:17;;;;;;;1.65;0.63;;;;;;;;;;5019636;28;20054;-78
2022/08/01 11:04:00;;;;;;;1.50;0.93;;;;;;;;;;5018067;28;20042;-78
2022/08/01 11:06:33;;;;;;;1.17;0.75;;;;;;;;;;5019599;28;20130;-78
2022/08/01 11:09:01;;;;;;;4.38;0.75;;;;;;;;;;5009122;28;20080;-80
2022/08/01 11:11:31;;;;;;;1.25;0.70;;;;;;;;;;5018865;28;20072;-78
2022/08/01 11:14:06;;;;;;;2.35;0.90;;;;;;;;;;5020731;28;20113;-78
2022/08/01 11:16:36;;;;;;;2.10;0.80;;;;;;;;;;5018715;28;20050;-79
2022/08/01 11:19:03;;;;;;;2.85;0.85;;;;;;;;;;5019296;28;20069;-79
2022/08/01 11:21:48;;;;;;;2.80;0.80;;;;;;;;;;5021970;28;20061;-78
2022/08/01 11:24:43;;;;;;;2.75;0.80;;;;;;;;;;5021303;28;20148;-79
2022/08/01 11:27:25;;;;;;;2.95;0.77;;;;;;;;;;5021626;28;20069;-79
2022/08/01 11:30:10;;;;;;;1.02;0.60;;;;;;;;;;5012520;28;20046;-78
2022/08/01 11:32:55;;;;;;;1.27;0.60;;;;;;;;;;5011333;28;20527;-77
2022/08/01 11:35:37;;;;;;;1.35;0.50;;;;;;;;;;5011825;28;20141;-78
2022/08/01 11:38:23;;;;;;;0.90;0.45;;;;;;;;;;5012669;28;20479;-78
2022/08/01 11:41:10;;;;;;;1.48;0.50;;;;;;;;;;5011885;28;20391;-78
2022/08/01 11:43:54;;;;;;;3.40;0.50;;;;;;;;;;5011488;28;20477;-77
2022/08/01 11:46:40;;;;;;;0.77;0.47;;;;;;;;;;5013053;28;20387;-78
2022/08/01 11:49:25;;;;;;;1.05;0.55;;;;;;;;;;5008623;28;20121;-78
2022/08/01 11:52:02;;;;;;;1.60;0.70;;;;;;;;;;5006050;28;20052;-78
2022/08/01 11:54:31;;;;;;;3.40;0.60;;;;;;;;;;5009933;28;20550;-78
2022/08/01 11:57:05;;;;;;;3.78;0.77;;;;;;;;;;5011625;28;20057;-81
2022/08/01 11:59:36;;;;;;;7.68;0.90;;;;;;;;;;5014114;28;20050;-78
2022/08/01 12:02:19;;;;;;;4.15;0.98;;;;;;;;;;5014171;28;20060;-78
2022/08/01 12:05:04;;;;;;;1.90;0.50;;;;;;;;;;5010876;28;20165;-78
2022/08/01 12:07:34;;;;;;;1.65;0.45;;;;;;;;;;5015800;28;20491;-79
2022/08/01 12:10:00;;;;;;;0.55;0.52;;;;;;;;;;5013716;28;20054;-79
2022/08/01 12:12:27;;;;;;;1.17;0.60;;;;;;;;;;5020086;28;20042;-77
2022/08/01 12:14:55;;;;;;;1.77;0.70;;;;;;;;;;5034338;28;20038;-80
2022/08/01 12:17:28;;;;;;;2.70;0.63;;;;;;;;;;5034143;28;20034;-80
2022/08/01 12:19:55;;;;;;;2.90;0.50;;;;;;;;;;5024234;28;20157;-78
2022/08/01 12:22:22;;;;;;;0.88;0.50;;;;;;;;;;5018943;28;20073;-79
2022/08/01 12:24:48;;;;;;;1.58;0.60;;;;;;;;;;5016754;28;20153;-77
2022/08/01 12:27:28;;;;;;;1.73;0.60;;;;;;;;;;5012187;28;20046;-79
2022/08/01 12:29:55;;;;;;;0.50;0.50;;;;;;;;;;5010918;28;20077;-78
2022/08/01 12:32:30;;;;;;;2.08;0.50;;;;;;;;;;5013796;28;20482;-78
2022/08/01 12:35:11;;;;;;;2.28;0.50;;;;;;;;;;5014276;28;20141;-79
2022/08/01 12:37:44;;;;;;;0.60;0.45;;;;;;;;;;5016145;28;20463;-79
2022/08/01 12:40:30;;;;;;;1.02;0.45;;;;;;;;;;5017446;28;20049;-80
2022/08/01 12:43:01;;;;;;;2.97;0.50;;;;;;;;;;5018199;28;20073;-78
2022/08/01 12:45:36;;;;;;;0.77;0.40;;;;;;;;;;5018703;28;20077;-79
2022/08/01 12:48:07;;;;;;;0.50;0.40;;;;;;;;;;5017895;28;20102;-80
2022/08/01 12:50:33;;;;;;;7.78;0.52;;;;;;;;;;5017622;28;20537;-79
2022/08/01 12:53:00;;;;;;;5.35;0.50;;;;;;;;;;5018677;28;20085;-79
2022/08/01 12:55:27;;;;;;;2.22;0.60;;;;;;;;;;5021541;28;20120;-78
2022/08/01 12:58:08;;;;;;;0.60;0.40;;;;;;;;;;5020345;28;20053;-79
2022/08/01 13:00:43;;;;;;;3.22;0.52;;;;;;;;;;5019535;28;20053;-79
2022/08/01 13:03:10;;;;;;;3.90;0.55;;;;;;;;;;5019148;28;20050;-79
2022/08/01 13:05:40;;;;;;;1.65;0.40;;;;;;;;;;5020819;28;20088;-80
2022/08/01 13:08:14;;;;;;;5.05;0.60;;;;;;;;;;5023122;28;20046;-79
2022/08/01 13:10:41;;;;;;;2.00;0.60;;;;;;;;;;5021207;28;20085;-79
2022/08/01 13:13:08;;;;;;;3.42;0.60;;;;;;;;;;5019936;28;20062;-79
2022/08/01 13:15:38;;;;;;;2.17;0.45;;;;;;;;;;5020913;28;20057;-78
2022/08/01 13:18:22;;;;;;;2.05;0.50;;;;;;;;;;5019908;28;20061;-79
2022/08/01 13:20:50;;;;;;;0.90;0.50;;;;;;;;;;5020866;28;20491;-79
2022/08/01 13:23:18;;;;;;;3.30;0.50;;;;;;;;;;5021532;28;20042;-79
2022/08/01 13:26:05;;;;;;;0.70;0.40;;;;;;;;;;5019410;28;20103;-79
2022/08/01 13:28:31;;;;;;;1.85;0.50;;;;;;;;;;5020226;28;20081;-79
2022/08/01 13:31:03;;;;;;;1.58;0.57;;;;;;;;;;5019474;28;20060;-78
2022/08/01 13:33:41;;;;;;;1.88;0.45;;;;;;;;;;5018839;28;20108;-79
2022/08/01 13:36:08;;;;;;;1.40;0.50;;;;;;;;;;5017076;28;20057;-79
2022/08/01 13:41:19;;;;;;;0.90;0.50;;;;;;;;;;5021054;28;20073;-79
2022/08/01 13:43:46;;;;;;;2.47;0.40;;;;;;;;;;5019312;28;20050;-79
2022/08/01 13:46:24;;;;;;;1.48;0.40;;;;;;;;;;5019548;28;20472;-78
2022/08/01 13:48:54;;;;;;;1.02;0.45;;;;;;;;;;5019943;28;20551;-78
2022/08/01 13:51:21;;;;;;;0.73;0.40;;;;;;;;;;5014380;28;20483;-78
2022/08/01 13:53:48;;;;;;;0.40;0.40;;;;;;;;;;5010792;28;20046;-79
2022/08/01 13:56:16;;;;;;;1.40;0.50;;;;;;;;;;5018808;28;20057;-79
2022/08/01 13:58:42;;;;;;;2.60;0.60;;;;;;;;;;5020312;28;20061;-79
2022/08/01 14:01:09;;;;;;;1.73;0.40;;;;;;;;;;5020254;28;20100;-79
2022/08/01 14:03:36;;;;;;;2.08;0.50;;;;;;;;;;5022516;28;20046;-79
2022/08/01 14:06:02;;;;;;;0.60;0.52;;;;;;;;;;5018899;28;20632;-79
2022/08/01 14:08:29;;;;;;;2.58;0.50;;;;;;;;;;5018530;28;20084;-78
2022/08/01 14:10:59;;;;;;;0.73;0.43;;;;;;;;;;5018330;28;20490;-79
2022/08/01 14:13:25;;;;;;;1.30;0.50;;;;;;;;;;5017278;28;20050;-80
2022/08/01 14:15:57;;;;;;;2.63;0.63;;;;;;;;;;5017441;28;20069;-79
2022/08/01 14:18:23;;;;;;;2.92;0.43;;;;;;;;;;5019734;28;20045;-79
2022/08/01 14:20:51;;;;;;;0.75;0.40;;;;;;;;;;5015964;28;20483;-79
2022/08/01 14:23:22;;;;;;;4.10;0.40;;;;;;;;;;5015839;28;20057;-79
2022/08/01 14:25:48;;;;;;;1.33;0.40;;;;;;;;;;5018186;28;20057;-79
2022/08/01 14:28:30;;;;;;;2.10;0.40;;;;;;;;;;5013558;28;20053;-77
2022/08/01 14:30:57;;;;;;;1.10;0.50;;;;;;;;;;5011906;28;20050;-78
2022/08/01 14:33:24;;;;;;;5.88;0.50;;;;;;;;;;5010305;28;20093;-78
2022/08/01 14:35:50;;;;;;;2.50;0.57;;;;;;;;;;5018043;28;20050;-79
2022/08/01 14:38:37;;;;;;;3.67;0.50;;;;;;;;;;5019028;28;20050;-78
2022/08/01 14:41:03;;;;;;;1.25;0.47;;;;;;;;;;5012882;28;20223;-78
2022/08/01 14:43:31;;;;;;;2.95;0.50;;;;;;;;;;5010745;28;20089;-78
2022/08/01 14:45:59;;;;;;;0.98;0.38;;;;;;;;;;5013867;28;20049;-78
2022/08/01 14:48:26;;;;;;;1.40;0.50;;;;;;;;;;5013676;28;20056;-79
2022/08/01 14:50:52;;;;;;;0.98;0.55;;;;;;;;;;5012516;28;20096;-79
2022/08/01 14:53:19;;;;;;;3.80;0.50;;;;;;;;;;5016716;28;20073;-79
2022/08/01 14:55:45;;;;;;;1.70;0.60;;;;;;;;;;5021752;28;20204;-78
2022/08/01 14:58:12;;;;;;;3.85;0.60;;;;;;;;;;5020929;28;20049;-78
2022/08/01 15:00:38;;;;;;;0.65;0.65;;;;;;;;;;5015573;28;20086;-79
2022/08/01 15:03:05;;;;;;;2.00;0.80;;;;;;;;;;5015977;28;20451;-79
2022/08/01 15:05:35;;;;;;;1.48;0.60;;;;;;;;;;5016016;28;20137;-79
2022/08/01 15:08:02;;;;;;;3.72;0.60;;;;;;;;;;5017193;28;20080;-79